sensor_id;sensor_type;location;lat;lon;timestamp;temperature;humidity
12849;DHT22;6493;50.928;7.172;2023-12-07T00:03:49;0.70;72.10
12849;DHT22;6493;50.928;7.172;2023-12-07T00:08:52;0.70;72.20
12849;DHT22;6493;50.928;7.172;2023-12-07T00:13:56;0.70;72.20
12849;DHT22;6493;50.928;7.172;2023-12-07T00:19:01;0.70;72.20
12849;DHT22;6493;50.928;7.172;2023-12-07T00:24:05;0.70;73.00
12849;DHT22;6493;50.928;7.172;2023-12-07T00:29:08;0.70;72.20
12849;DHT22;6493;50.928;7.172;2023-12-07T00:34:13;0.70;72.20
12849;DHT22;6493;50.928;7.172;2023-12-07T00:39:19;0.70;72.10
12849;DHT22;6493;50.928;7.172;2023-12-07T00:44:23;0.70;72.80
12849;DHT22;6493;50.928;7.172;2023-12-07T00:49:28;0.70;72.00
12849;DHT22;6493;50.928;7.172;2023-12-07T00:54:32;0.70;72.00
12849;DHT22;6493;50.928;7.172;2023-12-07T00:59:35;0.70;71.90
12849;DHT22;6493;50.928;7.172;2023-12-07T01:04:40;0.60;71.70
12849;DHT22;6493;50.928;7.172;2023-12-07T01:09:44;0.60;71.60
12849;DHT22;6493;50.928;7.172;2023-12-07T01:14:48;0.50;71.50
12849;DHT22;6493;50.928;7.172;2023-12-07T01:19:53;0.50;71.50
12849;DHT22;6493;50.928;7.172;2023-12-07T01:24:56;0.40;71.60
12849;DHT22;6493;50.928;7.172;2023-12-07T01:30:00;0.40;71.70
12849;DHT22;6493;50.928;7.172;2023-12-07T01:35:08;0.40;71.80
12849;DHT22;6493;50.928;7.172;2023-12-07T01:40:11;0.40;71.90
12849;DHT22;6493;50.928;7.172;2023-12-07T01:45:17;0.40;71.90
12849;DHT22;6493;50.928;7.172;2023-12-07T01:50:22;0.30;71.80
12849;DHT22;6493;50.928;7.172;2023-12-07T01:55:27;0.40;72.00
12849;DHT22;6493;50.928;7.172;2023-12-07T02:00:33;0.40;72.10
12849;DHT22;6493;50.928;7.172;2023-12-07T02:05:43;0.40;72.00
12849;DHT22;6493;50.928;7.172;2023-12-07T02:10:46;0.40;72.10
12849;DHT22;6493;50.928;7.172;2023-12-07T02:15:50;0.40;72.10
12849;DHT22;6493;50.928;7.172;2023-12-07T02:21:02;0.40;72.20
12849;DHT22;6493;50.928;7.172;2023-12-07T02:26:09;0.50;72.30
12849;DHT22;6493;50.928;7.172;2023-12-07T02:31:15;0.50;72.40
12849;DHT22;6493;50.928;7.172;2023-12-07T02:36:20;0.50;72.30
12849;DHT22;6493;50.928;7.172;2023-12-07T02:41:26;0.50;72.30
12849;DHT22;6493;50.928;7.172;2023-12-07T02:46:31;0.50;72.30
12849;DHT22;6493;50.928;7.172;2023-12-07T02:51:35;0.50;72.30
12849;DHT22;6493;50.928;7.172;2023-12-07T02:56:39;0.60;72.30
12849;DHT22;6493;50.928;7.172;2023-12-07T03:01:44;0.60;72.30
12849;DHT22;6493;50.928;7.172;2023-12-07T03:06:48;0.60;72.20
12849;DHT22;6493;50.928;7.172;2023-12-07T03:11:51;0.60;72.20
12849;DHT22;6493;50.928;7.172;2023-12-07T03:16:56;0.60;72.20
12849;DHT22;6493;50.928;7.172;2023-12-07T03:22:00;0.60;72.20
12849;DHT22;6493;50.928;7.172;2023-12-07T03:27:04;0.60;72.20
12849;DHT22;6493;50.928;7.172;2023-12-07T03:32:09;0.60;72.20
12849;DHT22;6493;50.928;7.172;2023-12-07T03:37:13;0.60;72.30
12849;DHT22;6493;50.928;7.172;2023-12-07T03:42:17;0.60;72.40
12849;DHT22;6493;50.928;7.172;2023-12-07T03:47:42;0.60;72.40
12849;DHT22;6493;50.928;7.172;2023-12-07T03:52:45;0.60;72.30
12849;DHT22;6493;50.928;7.172;2023-12-07T03:57:49;0.70;72.30
12849;DHT22;6493;50.928;7.172;2023-12-07T04:02:54;0.60;72.20
12849;DHT22;6493;50.928;7.172;2023-12-07T04:07:58;0.60;72.20
12849;DHT22;6493;50.928;7.172;2023-12-07T04:13:01;0.60;72.30
12849;DHT22;6493;50.928;7.172;2023-12-07T04:18:06;0.60;72.30
12849;DHT22;6493;50.928;7.172;2023-12-07T04:23:10;0.70;72.40
12849;DHT22;6493;50.928;7.172;2023-12-07T04:28:14;0.70;72.30
12849;DHT22;6493;50.928;7.172;2023-12-07T04:33:19;0.70;72.20
12849;DHT22;6493;50.928;7.172;2023-12-07T04:38:23;0.70;72.30
12849;DHT22;6493;50.928;7.172;2023-12-07T04:43:26;0.60;72.20
12849;DHT22;6493;50.928;7.172;2023-12-07T04:48:31;0.60;72.90
12849;DHT22;6493;50.928;7.172;2023-12-07T04:53:35;0.60;72.20
12849;DHT22;6493;50.928;7.172;2023-12-07T04:58:39;0.60;72.20
12849;DHT22;6493;50.928;7.172;2023-12-07T05:03:44;0.60;72.20
12849;DHT22;6493;50.928;7.172;2023-12-07T05:08:47;0.60;72.10
12849;DHT22;6493;50.928;7.172;2023-12-07T05:13:51;0.60;72.00
12849;DHT22;6493;50.928;7.172;2023-12-07T05:18:56;0.50;71.70
12849;DHT22;6493;50.928;7.172;2023-12-07T05:24:00;0.50;71.70
12849;DHT22;6493;50.928;7.172;2023-12-07T05:29:03;0.50;71.80
12849;DHT22;6493;50.928;7.172;2023-12-07T05:34:08;0.40;71.70
12849;DHT22;6493;50.928;7.172;2023-12-07T05:39:12;0.40;71.60
12849;DHT22;6493;50.928;7.172;2023-12-07T05:44:16;0.30;71.60
12849;DHT22;6493;50.928;7.172;2023-12-07T05:49:25;0.30;71.60
12849;DHT22;6493;50.928;7.172;2023-12-07T05:54:29;0.20;72.20
12849;DHT22;6493;50.928;7.172;2023-12-07T05:59:36;0.20;71.60
12849;DHT22;6493;50.928;7.172;2023-12-07T06:04:42;0.20;71.60
12849;DHT22;6493;50.928;7.172;2023-12-07T06:09:45;0.10;71.30
12849;DHT22;6493;50.928;7.172;2023-12-07T06:14:49;0.10;71.30
12849;DHT22;6493;50.928;7.172;2023-12-07T06:19:54;0.00;71.20
12849;DHT22;6493;50.928;7.172;2023-12-07T06:24:58;-0.10;71.00
12849;DHT22;6493;50.928;7.172;2023-12-07T06:30:04;-0.20;70.90
12849;DHT22;6493;50.928;7.172;2023-12-07T06:35:11;-0.20;71.00
12849;DHT22;6493;50.928;7.172;2023-12-07T06:40:15;-0.30;70.80
12849;DHT22;6493;50.928;7.172;2023-12-07T06:45:19;-0.40;70.70
12849;DHT22;6493;50.928;7.172;2023-12-07T06:50:24;-0.40;70.70
12849;DHT22;6493;50.928;7.172;2023-12-07T06:55:28;-0.50;70.70
12849;DHT22;6493;50.928;7.172;2023-12-07T07:00:32;-0.60;70.70
12849;DHT22;6493;50.928;7.172;2023-12-07T07:05:38;-0.70;70.80
12849;DHT22;6493;50.928;7.172;2023-12-07T07:10:43;-0.70;70.90
12849;DHT22;6493;50.928;7.172;2023-12-07T07:15:47;-0.80;70.90
12849;DHT22;6493;50.928;7.172;2023-12-07T07:20:52;-0.90;70.90
12849;DHT22;6493;50.928;7.172;2023-12-07T07:25:56;-0.90;71.00
12849;DHT22;6493;50.928;7.172;2023-12-07T07:31:00;-1.00;71.00
12849;DHT22;6493;50.928;7.172;2023-12-07T07:36:05;-1.10;71.10
12849;DHT22;6493;50.928;7.172;2023-12-07T07:41:09;-1.10;71.20
12849;DHT22;6493;50.928;7.172;2023-12-07T07:46:14;-1.20;71.30
12849;DHT22;6493;50.928;7.172;2023-12-07T07:51:19;-1.20;71.40
12849;DHT22;6493;50.928;7.172;2023-12-07T07:56:23;-1.10;71.70
12849;DHT22;6493;50.928;7.172;2023-12-07T08:01:26;-1.10;71.50
12849;DHT22;6493;50.928;7.172;2023-12-07T08:06:31;-1.10;71.10
12849;DHT22;6493;50.928;7.172;2023-12-07T08:11:39;-1.10;71.10
12849;DHT22;6493;50.928;7.172;2023-12-07T08:16:44;-1.20;70.80
12849;DHT22;6493;50.928;7.172;2023-12-07T08:21:51;-1.20;71.20
12849;DHT22;6493;50.928;7.172;2023-12-07T08:26:55;-1.10;71.90
12849;DHT22;6493;50.928;7.172;2023-12-07T08:31:59;-1.00;72.20
12849;DHT22;6493;50.928;7.172;2023-12-07T08:37:04;-0.80;72.80
12849;DHT22;6493;50.928;7.172;2023-12-07T08:42:08;-0.40;73.80
12849;DHT22;6493;50.928;7.172;2023-12-07T08:47:11;0.10;73.80
12849;DHT22;6493;50.928;7.172;2023-12-07T08:52:16;0.60;73.80
12849;DHT22;6493;50.928;7.172;2023-12-07T08:57:37;1.10;74.30
12849;DHT22;6493;50.928;7.172;2023-12-07T09:02:51;1.60;74.00
12849;DHT22;6493;50.928;7.172;2023-12-07T09:07:56;2.00;70.90
12849;DHT22;6493;50.928;7.172;2023-12-07T09:13:00;2.30;70.10
12849;DHT22;6493;50.928;7.172;2023-12-07T09:18:03;2.40;68.70
12849;DHT22;6493;50.928;7.172;2023-12-07T09:23:09;2.20;67.80
12849;DHT22;6493;50.928;7.172;2023-12-07T09:28:12;1.90;67.30
12849;DHT22;6493;50.928;7.172;2023-12-07T09:33:16;1.60;67.10
12849;DHT22;6493;50.928;7.172;2023-12-07T09:38:23;1.20;66.10
12849;DHT22;6493;50.928;7.172;2023-12-07T09:43:27;0.80;66.10
12849;DHT22;6493;50.928;7.172;2023-12-07T09:48:30;0.50;65.90
12849;DHT22;6493;50.928;7.172;2023-12-07T09:53:38;0.30;66.40
12849;DHT22;6493;50.928;7.172;2023-12-07T09:58:43;0.00;66.90
12849;DHT22;6493;50.928;7.172;2023-12-07T10:03:46;-0.20;67.80
12849;DHT22;6493;50.928;7.172;2023-12-07T10:09:03;-0.30;67.70
12849;DHT22;6493;50.928;7.172;2023-12-07T10:14:09;-0.50;68.10
12849;DHT22;6493;50.928;7.172;2023-12-07T10:19:14;-0.50;68.40
12849;DHT22;6493;50.928;7.172;2023-12-07T10:24:35;-0.70;68.60
12849;DHT22;6493;50.928;7.172;2023-12-07T10:29:39;-0.70;69.20
12849;DHT22;6493;50.928;7.172;2023-12-07T10:34:43;-0.60;69.30
12849;DHT22;6493;50.928;7.172;2023-12-07T10:39:48;-0.60;69.30
12849;DHT22;6493;50.928;7.172;2023-12-07T10:44:55;-0.70;68.80
12849;DHT22;6493;50.928;7.172;2023-12-07T10:50:04;-0.70;69.00
12849;DHT22;6493;50.928;7.172;2023-12-07T10:55:15;-0.80;70.10
12849;DHT22;6493;50.928;7.172;2023-12-07T11:00:20;-0.70;69.80
12849;DHT22;6493;50.928;7.172;2023-12-07T11:05:42;-0.70;69.80
12849;DHT22;6493;50.928;7.172;2023-12-07T11:10:52;-0.70;69.80
12849;DHT22;6493;50.928;7.172;2023-12-07T11:15:58;-0.70;69.40
12849;DHT22;6493;50.928;7.172;2023-12-07T11:21:02;-0.70;69.40
12849;DHT22;6493;50.928;7.172;2023-12-07T11:26:07;-0.70;70.10
12849;DHT22;6493;50.928;7.172;2023-12-07T11:31:11;-0.60;70.20
12849;DHT22;6493;50.928;7.172;2023-12-07T11:36:14;-0.50;69.80
12849;DHT22;6493;50.928;7.172;2023-12-07T11:41:20;-0.40;69.80
12849;DHT22;6493;50.928;7.172;2023-12-07T11:46:23;-0.20;70.20
12849;DHT22;6493;50.928;7.172;2023-12-07T11:51:29;-0.10;69.70
12849;DHT22;6493;50.928;7.172;2023-12-07T11:56:34;0.10;68.70
12849;DHT22;6493;50.928;7.172;2023-12-07T12:01:38;0.10;68.90
12849;DHT22;6493;50.928;7.172;2023-12-07T12:06:43;0.20;67.90
12849;DHT22;6493;50.928;7.172;2023-12-07T12:11:49;0.20;68.50
12849;DHT22;6493;50.928;7.172;2023-12-07T12:16:53;0.30;68.70
12849;DHT22;6493;50.928;7.172;2023-12-07T12:21:57;0.40;68.60
12849;DHT22;6493;50.928;7.172;2023-12-07T12:27:05;0.50;68.20
12849;DHT22;6493;50.928;7.172;2023-12-07T12:32:09;0.60;68.40
12849;DHT22;6493;50.928;7.172;2023-12-07T12:37:12;0.60;68.00
12849;DHT22;6493;50.928;7.172;2023-12-07T12:42:18;0.60;67.60
12849;DHT22;6493;50.928;7.172;2023-12-07T12:47:22;0.60;67.40
12849;DHT22;6493;50.928;7.172;2023-12-07T12:52:25;0.60;66.50
12849;DHT22;6493;50.928;7.172;2023-12-07T12:57:31;0.60;66.60
12849;DHT22;6493;50.928;7.172;2023-12-07T13:02:35;0.60;66.80
12849;DHT22;6493;50.928;7.172;2023-12-07T13:07:38;0.60;67.10
12849;DHT22;6493;50.928;7.172;2023-12-07T13:12:43;0.60;67.10
12849;DHT22;6493;50.928;7.172;2023-12-07T13:17:47;0.60;66.90
12849;DHT22;6493;50.928;7.172;2023-12-07T13:22:51;0.60;66.20
12849;DHT22;6493;50.928;7.172;2023-12-07T13:27:56;0.50;66.40
12849;DHT22;6493;50.928;7.172;2023-12-07T13:33:00;0.50;66.00
12849;DHT22;6493;50.928;7.172;2023-12-07T13:38:19;0.40;66.30
12849;DHT22;6493;50.928;7.172;2023-12-07T13:43:24;0.40;66.50
12849;DHT22;6493;50.928;7.172;2023-12-07T13:48:28;0.40;66.50
12849;DHT22;6493;50.928;7.172;2023-12-07T13:53:32;0.30;66.60
12849;DHT22;6493;50.928;7.172;2023-12-07T13:58:37;0.30;66.60
12849;DHT22;6493;50.928;7.172;2023-12-07T14:03:42;0.30;66.60
12849;DHT22;6493;50.928;7.172;2023-12-07T14:08:45;0.30;66.30
12849;DHT22;6493;50.928;7.172;2023-12-07T14:13:50;0.30;66.30
12849;DHT22;6493;50.928;7.172;2023-12-07T14:18:57;0.30;66.30
12849;DHT22;6493;50.928;7.172;2023-12-07T14:24:16;0.20;66.20
12849;DHT22;6493;50.928;7.172;2023-12-07T14:29:21;0.20;66.00
12849;DHT22;6493;50.928;7.172;2023-12-07T14:34:29;0.20;66.20
12849;DHT22;6493;50.928;7.172;2023-12-07T14:39:38;0.10;66.20
12849;DHT22;6493;50.928;7.172;2023-12-07T14:44:45;0.10;66.30
12849;DHT22;6493;50.928;7.172;2023-12-07T14:49:48;0.10;66.70
12849;DHT22;6493;50.928;7.172;2023-12-07T14:54:53;0.00;66.80
12849;DHT22;6493;50.928;7.172;2023-12-07T14:59:57;0.10;67.00
12849;DHT22;6493;50.928;7.172;2023-12-07T15:05:01;0.00;66.80
12849;DHT22;6493;50.928;7.172;2023-12-07T15:10:07;-0.10;66.80
12849;DHT22;6493;50.928;7.172;2023-12-07T15:15:12;-0.20;66.80
12849;DHT22;6493;50.928;7.172;2023-12-07T15:20:16;-0.20;67.00
12849;DHT22;6493;50.928;7.172;2023-12-07T15:25:20;-0.20;67.20
12849;DHT22;6493;50.928;7.172;2023-12-07T15:30:26;-0.30;67.20
12849;DHT22;6493;50.928;7.172;2023-12-07T15:35:31;-0.30;66.90
12849;DHT22;6493;50.928;7.172;2023-12-07T15:40:35;-0.50;66.70
12849;DHT22;6493;50.928;7.172;2023-12-07T15:45:40;-0.50;66.80
12849;DHT22;6493;50.928;7.172;2023-12-07T15:50:44;-0.60;66.90
12849;DHT22;6493;50.928;7.172;2023-12-07T15:55:49;-0.70;66.80
12849;DHT22;6493;50.928;7.172;2023-12-07T16:00:54;-0.70;67.10
12849;DHT22;6493;50.928;7.172;2023-12-07T16:05:57;-0.80;66.80
12849;DHT22;6493;50.928;7.172;2023-12-07T16:11:01;-0.90;66.80
12849;DHT22;6493;50.928;7.172;2023-12-07T16:16:06;-0.90;67.00
12849;DHT22;6493;50.928;7.172;2023-12-07T16:21:10;-1.00;67.20
12849;DHT22;6493;50.928;7.172;2023-12-07T16:26:14;-1.20;67.20
12849;DHT22;6493;50.928;7.172;2023-12-07T16:31:19;-1.20;67.60
12849;DHT22;6493;50.928;7.172;2023-12-07T16:36:22;-1.20;67.90
12849;DHT22;6493;50.928;7.172;2023-12-07T16:41:27;-1.30;68.00
12849;DHT22;6493;50.928;7.172;2023-12-07T16:46:38;-1.30;68.20
12849;DHT22;6493;50.928;7.172;2023-12-07T16:51:42;-1.40;68.40
12849;DHT22;6493;50.928;7.172;2023-12-07T16:56:46;-1.50;68.50
12849;DHT22;6493;50.928;7.172;2023-12-07T17:01:51;-1.50;68.60
12849;DHT22;6493;50.928;7.172;2023-12-07T17:06:55;-1.50;69.30
12849;DHT22;6493;50.928;7.172;2023-12-07T17:11:59;-1.60;68.60
12849;DHT22;6493;50.928;7.172;2023-12-07T17:17:05;-1.60;68.80
12849;DHT22;6493;50.928;7.172;2023-12-07T17:22:08;-1.70;68.90
12849;DHT22;6493;50.928;7.172;2023-12-07T17:27:12;-1.70;69.00
12849;DHT22;6493;50.928;7.172;2023-12-07T17:32:19;-1.70;69.20
12849;DHT22;6493;50.928;7.172;2023-12-07T17:37:23;-1.70;69.10
12849;DHT22;6493;50.928;7.172;2023-12-07T17:42:26;-1.80;69.10
12849;DHT22;6493;50.928;7.172;2023-12-07T17:47:32;-1.80;69.10
12849;DHT22;6493;50.928;7.172;2023-12-07T17:52:36;-1.80;69.10
12849;DHT22;6493;50.928;7.172;2023-12-07T17:57:39;-1.80;69.00
12849;DHT22;6493;50.928;7.172;2023-12-07T18:02:44;-1.80;69.10
12849;DHT22;6493;50.928;7.172;2023-12-07T18:07:48;-1.80;69.10
12849;DHT22;6493;50.928;7.172;2023-12-07T18:12:51;-1.90;69.00
12849;DHT22;6493;50.928;7.172;2023-12-07T18:17:56;-1.90;69.00
12849;DHT22;6493;50.928;7.172;2023-12-07T18:23:00;-1.90;68.90
12849;DHT22;6493;50.928;7.172;2023-12-07T18:28:04;-1.90;68.90
12849;DHT22;6493;50.928;7.172;2023-12-07T18:33:09;-2.00;68.80
12849;DHT22;6493;50.928;7.172;2023-12-07T18:38:13;-2.00;68.90
12849;DHT22;6493;50.928;7.172;2023-12-07T18:43:16;-2.00;68.90
12849;DHT22;6493;50.928;7.172;2023-12-07T18:48:21;-2.10;68.90
12849;DHT22;6493;50.928;7.172;2023-12-07T18:53:25;-2.00;69.10
12849;DHT22;6493;50.928;7.172;2023-12-07T18:58:29;-2.10;69.00
12849;DHT22;6493;50.928;7.172;2023-12-07T19:03:34;-2.10;69.10
12849;DHT22;6493;50.928;7.172;2023-12-07T19:08:38;-2.10;69.10
12849;DHT22;6493;50.928;7.172;2023-12-07T19:13:42;-2.10;69.10
12849;DHT22;6493;50.928;7.172;2023-12-07T19:18:47;-2.10;69.20
12849;DHT22;6493;50.928;7.172;2023-12-07T19:23:50;-2.20;69.10
12849;DHT22;6493;50.928;7.172;2023-12-07T19:28:54;-2.10;69.30
12849;DHT22;6493;50.928;7.172;2023-12-07T19:33:59;-2.10;69.30
12849;DHT22;6493;50.928;7.172;2023-12-07T19:39:03;-2.10;69.20
12849;DHT22;6493;50.928;7.172;2023-12-07T19:44:07;-2.10;69.20
12849;DHT22;6493;50.928;7.172;2023-12-07T19:49:12;-2.10;69.10
12849;DHT22;6493;50.928;7.172;2023-12-07T19:54:16;-2.10;69.10
12849;DHT22;6493;50.928;7.172;2023-12-07T19:59:25;-2.20;69.10
12849;DHT22;6493;50.928;7.172;2023-12-07T20:04:30;-2.20;69.20
12849;DHT22;6493;50.928;7.172;2023-12-07T20:09:35;-2.20;69.30
12849;DHT22;6493;50.928;7.172;2023-12-07T20:14:38;-2.20;69.30
12849;DHT22;6493;50.928;7.172;2023-12-07T20:19:43;-2.20;69.30
12849;DHT22;6493;50.928;7.172;2023-12-07T20:24:47;-2.20;69.30
12849;DHT22;6493;50.928;7.172;2023-12-07T20:29:51;-2.20;69.30
12849;DHT22;6493;50.928;7.172;2023-12-07T20:34:56;-2.20;69.30
12849;DHT22;6493;50.928;7.172;2023-12-07T20:40:03;-2.10;69.40
12849;DHT22;6493;50.928;7.172;2023-12-07T20:45:07;-2.10;69.30
12849;DHT22;6493;50.928;7.172;2023-12-07T20:50:13;-2.10;69.30
12849;DHT22;6493;50.928;7.172;2023-12-07T20:55:16;-2.10;69.20
12849;DHT22;6493;50.928;7.172;2023-12-07T21:00:21;-2.10;69.10
12849;DHT22;6493;50.928;7.172;2023-12-07T21:05:26;-2.10;69.10
12849;DHT22;6493;50.928;7.172;2023-12-07T21:10:29;-2.00;69.00
12849;DHT22;6493;50.928;7.172;2023-12-07T21:15:33;-2.10;68.90
12849;DHT22;6493;50.928;7.172;2023-12-07T21:20:39;-2.00;69.10
12849;DHT22;6493;50.928;7.172;2023-12-07T21:25:42;-2.00;68.80
12849;DHT22;6493;50.928;7.172;2023-12-07T21:30:46;-2.00;68.90
12849;DHT22;6493;50.928;7.172;2023-12-07T21:35:51;-2.00;68.60
12849;DHT22;6493;50.928;7.172;2023-12-07T21:40:55;-2.00;68.20
12849;DHT22;6493;50.928;7.172;2023-12-07T21:46:00;-2.00;68.30
12849;DHT22;6493;50.928;7.172;2023-12-07T21:51:06;-2.00;67.90
12849;DHT22;6493;50.928;7.172;2023-12-07T21:56:10;-2.00;67.70
12849;DHT22;6493;50.928;7.172;2023-12-07T22:01:15;-1.90;67.70
12849;DHT22;6493;50.928;7.172;2023-12-07T22:06:24;-1.90;67.60
12849;DHT22;6493;50.928;7.172;2023-12-07T22:11:28;-1.80;66.90
12849;DHT22;6493;50.928;7.172;2023-12-07T22:16:32;-1.80;66.90
12849;DHT22;6493;50.928;7.172;2023-12-07T22:21:37;-1.80;66.80
12849;DHT22;6493;50.928;7.172;2023-12-07T22:26:40;-1.70;66.40
12849;DHT22;6493;50.928;7.172;2023-12-07T22:31:44;-1.70;65.90
12849;DHT22;6493;50.928;7.172;2023-12-07T22:36:49;-1.60;65.70
12849;DHT22;6493;50.928;7.172;2023-12-07T22:41:53;-1.60;65.10
12849;DHT22;6493;50.928;7.172;2023-12-07T22:46:56;-1.60;64.80
12849;DHT22;6493;50.928;7.172;2023-12-07T22:52:01;-1.60;64.60
12849;DHT22;6493;50.928;7.172;2023-12-07T22:57:05;-1.50;64.40
12849;DHT22;6493;50.928;7.172;2023-12-07T23:02:09;-1.50;64.70
12849;DHT22;6493;50.928;7.172;2023-12-07T23:07:14;-1.50;63.50
12849;DHT22;6493;50.928;7.172;2023-12-07T23:12:17;-1.50;63.30
12849;DHT22;6493;50.928;7.172;2023-12-07T23:17:21;-1.50;63.10
12849;DHT22;6493;50.928;7.172;2023-12-07T23:22:26;-1.40;63.20
12849;DHT22;6493;50.928;7.172;2023-12-07T23:27:31;-1.30;63.00
12849;DHT22;6493;50.928;7.172;2023-12-07T23:32:34;-1.30;62.40
12849;DHT22;6493;50.928;7.172;2023-12-07T23:37:39;-1.30;62.60
12849;DHT22;6493;50.928;7.172;2023-12-07T23:42:43;-1.30;62.60
12849;DHT22;6493;50.928;7.172;2023-12-07T23:47:46;-1.20;62.70
12849;DHT22;6493;50.928;7.172;2023-12-07T23:52:52;-1.20;63.30
12849;DHT22;6493;50.928;7.172;2023-12-07T23:57:56;-1.10;63.80
